Jasper S — V2CQ4 — position and weather

sailwx.info

Track history (hours):
 
Tides and Currents Weather Stations Pressure Air Temp Water Temp Dewpoint Dewpoint Depression Visibility Wind Speed Wind Dir Waves Ship Positions

Jasper S

Last reported at 2015-May-30 15:31 UTC. Time now 2015-May-30 16:28 UTC.
Position N 35°43' W 000°38'.

Length 148 m; draft 8.3 m.

Type: Ship. MMSI: 305079000.

Date/timePositionNaut miles runAvg speedWind from/ knotsBaromVisibWave heightAir tempDewpointWater temp
2015-May-30 15:31N 35°43' W 000°38'0 0.0
2015-May-30 12:25N 35°43' W 000°38'0 0.0
2015-May-30 11:13N 35°43' W 000°38'0 0.0
2015-May-30 04:25N 35°43' W 000°38'1 0.1
2015-May-29 17:27N 35°43' W 000°37'2 1.7
2015-May-29 16:33N 35°45' W 000°37'0 0.1
2015-May-29 15:30N 35°45' W 000°37'0 0.0
2015-May-29 13:30N 35°45' W 000°37'0 0.0
2015-May-29 12:30N 35°45' W 000°37'0 0.0
2015-May-29 11:18N 35°45' W 000°37'0 0.0
2015-May-29 09:30N 35°45' W 000°37'0 0.0
2015-May-29 08:23N 35°45' W 000°37'0 0.1
2015-May-29 07:24N 35°45' W 000°37'0 0.0
2015-May-29 06:29N 35°45' W 000°37'0 0.0
2015-May-29 05:24N 35°45' W 000°37'1910.5
2015-May-29 03:33N 36°03' W 000°28'2115.8
2015-May-29 02:13N 36°23' W 000°19'2915.9
2015-May-29 00:25N 36°49' W 000°05'1416.1
2015-May-28 23:33N 37°02' E 000°01'1716.2
2015-May-28 22:31N 37°18' E 000°09'1515.9
2015-May-28 21:33N 37°32' E 000°16'1916.1
2015-May-28 20:23N 37°49' E 000°24'1316.0
2015-May-28 19:33N 38°02' E 000°30'1616.1
2015-May-28 18:33N 38°17' E 000°38'2015.9
2015-May-28 17:16N 38°36' E 000°48'2715.7
2015-May-28 15:31N 39°01' E 001°01'1515.5
2015-May-28 14:33N 39°15' E 001°08'1616.0
2015-May-28 13:34N 39°30' E 001°15'1616.1
2015-May-28 12:33N 39°45' E 001°23'1616.3
2015-May-28 11:33N 40°00' E 001°31'1616.4
2015-May-28 10:33N 40°15' E 001°39'1616.4
2015-May-28 09:33N 40°31' E 001°46'1716.6
2015-May-28 08:34N 40°46' E 001°54'1616.2
2015-May-28 07:33N 41°01' E 002°02'1312.5
2015-May-28 06:33N 41°13' E 002°08'6 2.7
2015-May-28 04:31N 41°18' E 002°09'0 0.0
2015-May-28 03:31N 41°18' E 002°09'0 0.0
2015-May-28 02:25N 41°18' E 002°09'0 0.0
2015-May-28 00:31N 41°18' E 002°09'25 1.4
2015-May-27 06:20N 40°59' E 001°48'1312.3
2015-May-27 05:18N 40°50' E 001°36'911.9
2015-May-27 04:33N 40°43' E 001°28'1212.0
2015-May-27 03:33N 40°35' E 001°17'1211.9
2015-May-27 02:34N 40°26' E 001°06'1211.9
2015-May-27 01:34N 40°18' E 000°55'6512.0
2015-May-26 20:09N 39°33' W 000°06'711.8
2015-May-26 19:33N 39°28' W 000°13'5 5.1
2015-May-26 18:30N 39°26' W 000°19'0 0.0
2015-May-26 17:30N 39°26' W 000°19'0 0.0
2015-May-26 16:30N 39°26' W 000°19'0 0.0
2015-May-26 15:33N 39°26' W 000°19'0 0.0
2015-May-26 14:33N 39°26' W 000°19'0 0.0
2015-May-26 13:30N 39°26' W 000°19'0 0.0
2015-May-26 12:33N 39°26' W 000°19'0 0.0
2015-May-26 11:33N 39°26' W 000°19'0 0.0
2015-May-26 10:33N 39°26' W 000°19'1 0.5
2015-May-26 09:33N 39°26' W 000°19'0 0.0
2015-May-26 08:32N 39°26' W 000°19'0 0.0
2015-May-26 07:32N 39°26' W 000°19'0 0.0
2015-May-26 06:33N 39°26' W 000°19'0 0.0
2015-May-26 05:33N 39°26' W 000°19'0 0.0
2015-May-26 04:33N 39°26' W 000°19'0 0.0
2015-May-26 03:33N 39°26' W 000°19'0 0.0
2015-May-26 02:33N 39°26' W 000°19'0 0.0
2015-May-26 01:32N 39°26' W 000°19'0 0.0
2015-May-26 00:33N 39°26' W 000°19'0 0.0
2015-May-25 23:32N 39°26' W 000°19'0 0.0
2015-May-25 22:32N 39°26' W 000°19'0 0.0
2015-May-25 21:33N 39°26' W 000°19'0 0.0
2015-May-25 20:33N 39°26' W 000°19'0 0.0
2015-May-25 19:33N 39°26' W 000°19'0 0.0
2015-May-25 18:33N 39°26' W 000°19'0 0.0
2015-May-25 17:32N 39°26' W 000°19'0 0.0
2015-May-25 16:33N 39°26' W 000°19'0 0.0
2015-May-25 15:33N 39°26' W 000°19'0 0.0
2015-May-25 14:30N 39°26' W 000°19'0 0.0
2015-May-25 13:33N 39°26' W 000°19'0 0.0
2015-May-25 12:33N 39°26' W 000°19'0 0.0
2015-May-25 11:33N 39°26' W 000°19'0 0.0
2015-May-25 10:33N 39°26' W 000°19'0 0.0
2015-May-25 09:33N 39°26' W 000°19'0 0.0
2015-May-25 08:33N 39°26' W 000°19'0 0.0
2015-May-25 07:27N 39°26' W 000°19'0 0.0
2015-May-25 06:32N 39°26' W 000°19'0 0.0
2015-May-25 05:33N 39°26' W 000°19'0 0.0
2015-May-25 04:33N 39°26' W 000°19'0 0.0
2015-May-25 03:32N 39°26' W 000°19'0 0.0
2015-May-25 02:32N 39°26' W 000°19'0 0.0
2015-May-25 01:30N 39°26' W 000°19'0 0.0
2015-May-25 00:33N 39°26' W 000°19'0 0.0
2015-May-24 23:30N 39°26' W 000°19'0 0.0
2015-May-24 22:33N 39°26' W 000°19'0 0.0
2015-May-24 21:30N 39°26' W 000°19'0 0.0
2015-May-24 20:33N 39°26' W 000°19'0 0.0
2015-May-24 19:33N 39°26' W 000°19'0 0.0
2015-May-24 18:33N 39°26' W 000°19'0 0.0
2015-May-24 17:33N 39°26' W 000°19'0 0.0
2015-May-24 16:33N 39°26' W 000°19'0 0.0
2015-May-24 15:33N 39°26' W 000°19'0 0.0
2015-May-24 14:33N 39°26' W 000°19'5 5.4
2015-May-24 13:33N 39°23' W 000°14'8011.1
2015-May-24 06:22N 38°07' E 000°18'3912.3
2015-May-24 03:13N 37°30' E 000°05'1412.2
2015-May-24 02:06N 37°16' E 000°01'3412.3
2015-May-23 23:18N 36°43' W 000°09'6012.0
2015-May-23 18:19N 35°47' W 000°35'5 5.7
2015-May-23 17:28N 35°43' W 000°38'0 0.0
2015-May-23 02:30N 35°43' W 000°38'0 0.0
2015-May-22 21:24N 35°43' W 000°38'0 0.0
2015-May-22 01:24N 35°43' W 000°38'  
Track history (hours):
 
Tides and Currents Weather Stations Pressure Air Temp Water Temp Dewpoint Dewpoint Depression Visibility Wind Speed Wind Dir Waves Ship Positions

Jasper S

Last reported at 2015-May-30 15:31 UTC. Time now 2015-May-30 16:28 UTC.
Position N 35°43' W 000°38'.

Length 148 m; draft 8.3 m.

Type: Ship. MMSI: 305079000.

Date/timePositionNaut miles runAvg speedWind from/ knotsBaromVisibWave heightAir tempDewpointWater temp
2015-May-30 15:31N 35°43' W 000°38'0 0.0
2015-May-30 12:25N 35°43' W 000°38'0 0.0
2015-May-30 11:13N 35°43' W 000°38'0 0.0
2015-May-30 04:25N 35°43' W 000°38'1 0.1
2015-May-29 17:27N 35°43' W 000°37'2 1.7
2015-May-29 16:33N 35°45' W 000°37'0 0.1
2015-May-29 15:30N 35°45' W 000°37'0 0.0
2015-May-29 13:30N 35°45' W 000°37'0 0.0
2015-May-29 12:30N 35°45' W 000°37'0 0.0
2015-May-29 11:18N 35°45' W 000°37'0 0.0
2015-May-29 09:30N 35°45' W 000°37'0 0.0
2015-May-29 08:23N 35°45' W 000°37'0 0.1
2015-May-29 07:24N 35°45' W 000°37'0 0.0
2015-May-29 06:29N 35°45' W 000°37'0 0.0
2015-May-29 05:24N 35°45' W 000°37'1910.5
2015-May-29 03:33N 36°03' W 000°28'2115.8
2015-May-29 02:13N 36°23' W 000°19'2915.9
2015-May-29 00:25N 36°49' W 000°05'1416.1
2015-May-28 23:33N 37°02' E 000°01'1716.2
2015-May-28 22:31N 37°18' E 000°09'1515.9
2015-May-28 21:33N 37°32' E 000°16'1916.1
2015-May-28 20:23N 37°49' E 000°24'1316.0
2015-May-28 19:33N 38°02' E 000°30'1616.1
2015-May-28 18:33N 38°17' E 000°38'2015.9
2015-May-28 17:16N 38°36' E 000°48'2715.7
2015-May-28 15:31N 39°01' E 001°01'1515.5
2015-May-28 14:33N 39°15' E 001°08'1616.0
2015-May-28 13:34N 39°30' E 001°15'1616.1
2015-May-28 12:33N 39°45' E 001°23'1616.3
2015-May-28 11:33N 40°00' E 001°31'1616.4
2015-May-28 10:33N 40°15' E 001°39'1616.4
2015-May-28 09:33N 40°31' E 001°46'1716.6
2015-May-28 08:34N 40°46' E 001°54'1616.2
2015-May-28 07:33N 41°01' E 002°02'1312.5
2015-May-28 06:33N 41°13' E 002°08'6 2.7
2015-May-28 04:31N 41°18' E 002°09'0 0.0
2015-May-28 03:31N 41°18' E 002°09'0 0.0
2015-May-28 02:25N 41°18' E 002°09'0 0.0
2015-May-28 00:31N 41°18' E 002°09'25 1.4
2015-May-27 06:20N 40°59' E 001°48'1312.3
2015-May-27 05:18N 40°50' E 001°36'911.9
2015-May-27 04:33N 40°43' E 001°28'1212.0
2015-May-27 03:33N 40°35' E 001°17'1211.9
2015-May-27 02:34N 40°26' E 001°06'1211.9
2015-May-27 01:34N 40°18' E 000°55'6512.0
2015-May-26 20:09N 39°33' W 000°06'711.8
2015-May-26 19:33N 39°28' W 000°13'5 5.1
2015-May-26 18:30N 39°26' W 000°19'0 0.0
2015-May-26 17:30N 39°26' W 000°19'0 0.0
2015-May-26 16:30N 39°26' W 000°19'0 0.0
2015-May-26 15:33N 39°26' W 000°19'0 0.0
2015-May-26 14:33N 39°26' W 000°19'0 0.0
2015-May-26 13:30N 39°26' W 000°19'0 0.0
2015-May-26 12:33N 39°26' W 000°19'0 0.0
2015-May-26 11:33N 39°26' W 000°19'0 0.0
2015-May-26 10:33N 39°26' W 000°19'1 0.5
2015-May-26 09:33N 39°26' W 000°19'0 0.0
2015-May-26 08:32N 39°26' W 000°19'0 0.0
2015-May-26 07:32N 39°26' W 000°19'0 0.0
2015-May-26 06:33N 39°26' W 000°19'0 0.0
2015-May-26 05:33N 39°26' W 000°19'0 0.0
2015-May-26 04:33N 39°26' W 000°19'0 0.0
2015-May-26 03:33N 39°26' W 000°19'0 0.0
2015-May-26 02:33N 39°26' W 000°19'0 0.0
2015-May-26 01:32N 39°26' W 000°19'0 0.0
2015-May-26 00:33N 39°26' W 000°19'0 0.0
2015-May-25 23:32N 39°26' W 000°19'0 0.0
2015-May-25 22:32N 39°26' W 000°19'0 0.0
2015-May-25 21:33N 39°26' W 000°19'0 0.0
2015-May-25 20:33N 39°26' W 000°19'0 0.0
2015-May-25 19:33N 39°26' W 000°19'0 0.0
2015-May-25 18:33N 39°26' W 000°19'0 0.0
2015-May-25 17:32N 39°26' W 000°19'0 0.0
2015-May-25 16:33N 39°26' W 000°19'0 0.0
2015-May-25 15:33N 39°26' W 000°19'0 0.0
2015-May-25 14:30N 39°26' W 000°19'0 0.0
2015-May-25 13:33N 39°26' W 000°19'0 0.0
2015-May-25 12:33N 39°26' W 000°19'0 0.0
2015-May-25 11:33N 39°26' W 000°19'0 0.0
2015-May-25 10:33N 39°26' W 000°19'0 0.0
2015-May-25 09:33N 39°26' W 000°19'0 0.0
2015-May-25 08:33N 39°26' W 000°19'0 0.0
2015-May-25 07:27N 39°26' W 000°19'0 0.0
2015-May-25 06:32N 39°26' W 000°19'0 0.0
2015-May-25 05:33N 39°26' W 000°19'0 0.0
2015-May-25 04:33N 39°26' W 000°19'0 0.0
2015-May-25 03:32N 39°26' W 000°19'0 0.0
2015-May-25 02:32N 39°26' W 000°19'0 0.0
2015-May-25 01:30N 39°26' W 000°19'0 0.0
2015-May-25 00:33N 39°26' W 000°19'0 0.0
2015-May-24 23:30N 39°26' W 000°19'0 0.0
2015-May-24 22:33N 39°26' W 000°19'0 0.0
2015-May-24 21:30N 39°26' W 000°19'0 0.0
2015-May-24 20:33N 39°26' W 000°19'0 0.0
2015-May-24 19:33N 39°26' W 000°19'0 0.0
2015-May-24 18:33N 39°26' W 000°19'0 0.0
2015-May-24 17:33N 39°26' W 000°19'0 0.0
2015-May-24 16:33N 39°26' W 000°19'0 0.0
2015-May-24 15:33N 39°26' W 000°19'0 0.0
2015-May-24 14:33N 39°26' W 000°19'5 5.4
2015-May-24 13:33N 39°23' W 000°14'8011.1
2015-May-24 06:22N 38°07' E 000°18'3912.3
2015-May-24 03:13N 37°30' E 000°05'1412.2
2015-May-24 02:06N 37°16' E 000°01'3412.3
2015-May-23 23:18N 36°43' W 000°09'6012.0
2015-May-23 18:19N 35°47' W 000°35'5 5.7
2015-May-23 17:28N 35°43' W 000°38'0 0.0
2015-May-23 02:30N 35°43' W 000°38'0 0.0
2015-May-22 21:24N 35°43' W 000°38'0 0.0
2015-May-22 01:24N 35°43' W 000°38'  

Dump ship's entire track history